createdAt,value
2023-01-02T00:00:48.479Z,417.00
2023-01-02T00:01:50.574Z,416.00
2023-01-02T00:02:48.615Z,416.00
2023-01-02T00:03:48.586Z,416.00
2023-01-02T00:04:48.394Z,413.00
2023-01-02T00:05:48.548Z,415.00
2023-01-02T00:06:48.361Z,418.00
2023-01-02T00:07:48.421Z,419.00
2023-01-02T00:08:48.332Z,419.00
2023-01-02T00:09:48.413Z,420.00
2023-01-02T00:10:50.510Z,418.00
2023-01-02T00:11:48.294Z,421.00
2023-01-02T00:12:49.352Z,419.00
2023-01-02T00:13:48.280Z,419.00
2023-01-02T00:14:48.351Z,420.00
2023-01-02T00:15:48.275Z,420.00
2023-01-02T00:16:48.386Z,422.00
2023-01-02T00:17:48.217Z,422.00
2023-01-02T00:18:48.321Z,420.00
2023-01-02T00:19:48.200Z,421.00
2023-01-02T00:20:50.383Z,421.00
2023-01-02T00:21:48.159Z,420.00
2023-01-02T00:22:48.205Z,418.00
2023-01-02T00:23:48.140Z,414.00
2023-01-02T00:24:48.225Z,413.00
2023-01-02T00:25:48.130Z,414.00
2023-01-02T00:26:49.192Z,413.00
2023-01-02T00:27:48.084Z,415.00
2023-01-02T00:28:48.200Z,418.00
2023-01-02T00:29:48.056Z,419.00
2023-01-02T00:30:48.129Z,415.00
2023-01-02T00:31:48.111Z,415.00
2023-01-02T00:32:48.069Z,416.00
2023-01-02T00:33:48.014Z,416.00
2023-01-02T00:34:48.105Z,418.00
2023-01-02T00:35:47.975Z,416.00
2023-01-02T00:36:48.146Z,416.00
2023-01-02T00:37:47.972Z,419.00
2023-01-02T00:39:57.404Z,464.00
2023-01-02T00:40:57.245Z,421.00
2023-01-02T00:41:57.324Z,415.00
2023-01-02T00:42:57.261Z,412.00
2023-01-02T00:43:58.286Z,412.00
2023-01-02T00:44:57.204Z,413.00
2023-01-02T00:45:57.254Z,413.00
2023-01-02T00:46:57.242Z,414.00
2023-01-02T00:47:57.293Z,413.00
2023-01-02T00:48:57.164Z,412.00
2023-01-02T00:49:57.224Z,413.00
2023-01-02T00:50:57.123Z,411.00
2023-01-02T00:51:57.280Z,408.00
2023-01-02T00:52:57.094Z,410.00
2023-01-02T00:53:57.194Z,409.00
2023-01-02T00:54:57.104Z,410.00
2023-01-02T00:55:57.133Z,404.00
2023-01-02T00:56:57.047Z,408.00
2023-01-02T00:57:57.161Z,411.00
2023-01-02T00:58:57.027Z,414.00
2023-01-02T00:59:57.123Z,414.00
2023-01-02T01:00:57.071Z,414.00
2023-01-02T01:01:59.299Z,412.00
2023-01-02T01:02:57.066Z,414.00
2023-01-02T01:03:57.103Z,416.00
2023-01-02T01:04:56.943Z,416.00
2023-01-02T01:05:58.037Z,417.00
2023-01-02T01:06:56.928Z,418.00
2023-01-02T01:07:57.962Z,417.00
2023-01-02T01:08:56.885Z,419.00
2023-01-02T01:09:56.983Z,419.00
2023-01-02T01:10:56.852Z,418.00
2023-01-02T01:11:57.022Z,419.00
2023-01-02T01:12:56.841Z,417.00
2023-01-02T01:13:56.850Z,418.00
2023-01-02T01:14:56.805Z,418.00
2023-01-02T01:15:56.946Z,416.00
2023-01-02T01:16:56.771Z,416.00
2023-01-02T01:17:56.924Z,415.00
2023-01-02T01:18:56.798Z,415.00
2023-01-02T01:19:56.863Z,420.00
2023-01-02T01:20:56.721Z,417.00
2023-01-02T01:21:56.900Z,415.00
2023-01-02T01:22:56.722Z,414.00
2023-01-02T01:24:17.750Z,416.00
2023-01-02T01:24:56.673Z,415.00
2023-01-02T01:25:56.776Z,413.00
2023-01-02T01:26:56.645Z,414.00
2023-01-02T01:27:56.803Z,415.00
2023-01-02T01:28:56.622Z,416.00
2023-01-02T01:29:57.719Z,413.00
2023-01-02T01:30:56.595Z,415.00
2023-01-02T01:31:56.704Z,410.00
2023-01-02T01:32:56.578Z,414.00
2023-01-02T01:33:56.600Z,416.00
2023-01-02T01:34:56.540Z,416.00
2023-01-02T01:36:04.373Z,417.00
2023-01-02T01:36:56.524Z,413.00
2023-01-02T01:37:56.669Z,415.00
2023-01-02T01:38:56.484Z,415.00
2023-01-02T01:39:57.131Z,414.00
2023-01-02T01:40:56.477Z,413.00
2023-01-02T01:41:56.590Z,414.00
2023-01-02T01:43:00.884Z,409.00
2023-01-02T01:43:56.430Z,412.00
2023-01-02T01:44:56.554Z,413.00
2023-01-02T01:45:56.400Z,412.00
2023-01-02T01:46:57.481Z,415.00
2023-01-02T01:47:56.385Z,415.00
2023-01-02T01:48:56.376Z,414.00
2023-01-02T01:50:02.829Z,413.00
2023-01-02T01:50:57.325Z,411.00
2023-01-02T01:51:57.442Z,411.00
2023-01-02T01:52:56.300Z,412.00
2023-01-02T01:53:56.409Z,413.00
2023-01-02T01:54:56.279Z,414.00
2023-01-02T01:55:56.390Z,411.00
2023-01-02T01:56:56.247Z,414.00
2023-01-02T01:57:56.439Z,414.00
2023-01-02T01:58:56.221Z,416.00
2023-01-02T01:59:56.312Z,412.00
2023-01-02T02:00:56.229Z,413.00
2023-01-02T02:01:56.482Z,413.00
2023-01-02T02:02:56.261Z,419.00
2023-01-02T02:03:56.175Z,414.00
2023-01-02T02:04:56.148Z,415.00
2023-01-02T02:05:56.320Z,416.00
2023-01-02T02:06:56.134Z,413.00
2023-01-02T02:07:56.310Z,415.00
2023-01-02T02:08:56.085Z,415.00
2023-01-02T02:09:58.229Z,416.00
2023-01-02T02:10:56.066Z,416.00
2023-01-02T02:11:56.231Z,415.00
2023-01-02T02:12:56.038Z,413.00
2023-01-02T02:13:56.108Z,414.00
2023-01-02T02:14:56.044Z,414.00
2023-01-02T02:15:56.431Z,415.00
2023-01-02T02:16:56.031Z,415.00
2023-01-02T02:17:56.029Z,419.00
2023-01-02T02:18:55.963Z,415.00
2023-01-02T02:19:56.008Z,413.00
2023-01-02T02:20:55.929Z,414.00
2023-01-02T02:22:19.010Z,415.00
2023-01-02T02:22:55.910Z,415.00
2023-01-02T02:23:56.038Z,415.00
2023-01-02T02:24:55.877Z,419.00
2023-01-02T02:25:56.024Z,421.00
2023-01-02T02:26:55.848Z,418.00
2023-01-02T02:27:55.948Z,422.00
2023-01-02T02:28:55.837Z,416.00
2023-01-02T02:29:55.939Z,421.00
2023-01-02T02:30:55.801Z,418.00
2023-01-02T02:31:55.960Z,420.00
2023-01-02T02:32:55.775Z,419.00
2023-01-02T02:33:55.777Z,419.00
2023-01-02T02:34:55.747Z,418.00
2023-01-02T02:35:55.957Z,416.00
2023-01-02T02:36:55.726Z,416.00
2023-01-02T02:37:55.829Z,416.00
2023-01-02T02:38:55.697Z,416.00
2023-01-02T02:39:55.772Z,417.00
2023-01-02T02:40:55.666Z,416.00
2023-01-02T02:42:00.966Z,419.00
2023-01-02T02:42:55.647Z,418.00
2023-01-02T02:43:55.736Z,416.00
2023-01-02T02:44:55.616Z,415.00
2023-01-02T02:45:55.701Z,416.00
2023-01-02T02:46:55.597Z,423.00
2023-01-02T02:47:55.656Z,420.00
2023-01-02T02:48:55.556Z,418.00
2023-01-02T02:49:57.741Z,416.00
2023-01-02T02:50:55.547Z,417.00
2023-01-02T02:51:55.687Z,416.00
2023-01-02T02:52:55.507Z,413.00
2023-01-02T02:53:55.666Z,413.00
2023-01-02T02:54:55.487Z,418.00
2023-01-02T02:55:57.644Z,420.00
2023-01-02T02:56:55.460Z,421.00
2023-01-02T02:57:55.587Z,423.00
2023-01-02T02:58:55.436Z,420.00
2023-01-02T02:59:55.573Z,422.00
2023-01-02T03:00:55.428Z,421.00
2023-01-02T03:01:56.756Z,423.00
2023-01-02T03:02:55.439Z,420.00
2023-01-02T03:03:55.386Z,418.00
2023-01-02T03:04:55.356Z,415.00
2023-01-02T03:05:55.515Z,416.00
2023-01-02T03:06:55.328Z,416.00
2023-01-02T03:07:55.460Z,414.00
2023-01-02T03:08:55.304Z,419.00
2023-01-02T03:09:55.397Z,417.00
2023-01-02T03:10:55.266Z,416.00
2023-01-02T03:11:55.498Z,414.00
2023-01-02T03:12:55.244Z,411.00
2023-01-02T03:13:55.265Z,410.00
2023-01-02T03:14:55.224Z,410.00
2023-01-02T03:15:55.297Z,412.00
2023-01-02T03:16:55.220Z,407.00
2023-01-02T03:17:55.298Z,408.00
2023-01-02T03:18:55.175Z,410.00
2023-01-02T03:19:55.269Z,411.00
2023-01-02T03:20:55.145Z,413.00
2023-01-02T03:21:55.309Z,412.00
2023-01-02T03:22:55.118Z,411.00
2023-01-02T03:23:58.365Z,411.00
2023-01-02T03:24:55.099Z,412.00
2023-01-02T03:25:55.175Z,412.00
2023-01-02T03:26:55.081Z,408.00
2023-01-02T03:27:55.216Z,410.00
2023-01-02T03:28:55.046Z,412.00
2023-01-02T03:29:57.255Z,414.00
2023-01-02T03:30:55.020Z,414.00
2023-01-02T03:31:55.132Z,415.00
2023-01-02T03:32:54.991Z,416.00
2023-01-02T03:33:54.985Z,415.00
2023-01-02T03:34:54.983Z,413.00
2023-01-02T03:35:56.146Z,412.00
2023-01-02T03:36:54.927Z,413.00
2023-01-02T03:37:55.095Z,412.00
2023-01-02T03:38:54.912Z,412.00
2023-01-02T03:39:55.025Z,412.00
2023-01-02T03:40:54.887Z,414.00
2023-01-02T03:41:55.004Z,411.00
2023-01-02T03:42:54.853Z,413.00
2023-01-02T03:43:57.288Z,414.00
2023-01-02T03:44:54.824Z,417.00
2023-01-02T03:45:54.970Z,417.00
2023-01-02T03:46:54.795Z,417.00
2023-01-02T03:47:54.914Z,416.00
2023-01-02T03:48:54.764Z,418.00
2023-01-02T03:49:54.909Z,415.00
2023-01-02T03:50:54.744Z,412.00
2023-01-02T03:51:54.844Z,413.00
2023-01-02T03:52:54.723Z,414.00
2023-01-02T03:53:54.829Z,415.00
2023-01-02T03:54:54.693Z,417.00
2023-01-02T03:55:56.903Z,415.00
2023-01-02T03:56:54.675Z,417.00
2023-01-02T03:57:57.468Z,415.00
2023-01-02T03:58:54.646Z,418.00
2023-01-02T03:59:54.731Z,417.00
2023-01-02T04:00:54.635Z,420.00
2023-01-02T04:01:54.824Z,420.00
2023-01-02T04:02:54.618Z,423.00
2023-01-02T04:03:54.694Z,423.00
2023-01-02T04:04:54.578Z,422.00
2023-01-02T04:05:55.762Z,420.00
2023-01-02T04:06:54.542Z,420.00
2023-01-02T04:07:54.723Z,419.00
2023-01-02T04:08:54.513Z,421.00
2023-01-02T04:09:54.551Z,416.00
2023-01-02T04:10:58.285Z,419.00
2023-01-02T04:11:54.502Z,419.00
2023-01-02T04:12:54.657Z,417.00
2023-01-02T04:13:54.444Z,417.00
2023-01-02T04:14:54.466Z,418.00
2023-01-02T04:15:54.461Z,418.00
2023-01-02T04:16:54.523Z,419.00
2023-01-02T04:17:54.412Z,420.00
2023-01-02T04:18:54.392Z,413.00
2023-01-02T04:19:54.361Z,421.00
2023-01-02T04:20:54.504Z,417.00
2023-01-02T04:21:54.342Z,416.00
2023-01-02T04:22:54.440Z,418.00
2023-01-02T04:23:54.343Z,415.00
2023-01-02T04:24:54.370Z,415.00
2023-01-02T04:25:54.282Z,414.00
2023-01-02T04:26:54.353Z,412.00
2023-01-02T04:27:54.268Z,415.00
2023-01-02T04:28:54.432Z,414.00
2023-01-02T04:29:54.258Z,414.00
2023-01-02T04:30:54.403Z,416.00
2023-01-02T04:31:54.213Z,416.00
2023-01-02T04:33:15.388Z,414.00
2023-01-02T04:33:54.174Z,411.00
2023-01-02T04:34:54.256Z,411.00
2023-01-02T04:35:54.179Z,414.00
2023-01-02T04:36:54.278Z,413.00
2023-01-02T04:37:54.137Z,414.00
2023-01-02T04:38:54.311Z,415.00
2023-01-02T04:39:54.093Z,415.00
2023-01-02T04:40:54.251Z,416.00
2023-01-02T04:41:54.092Z,415.00
2023-01-02T04:42:54.184Z,416.00
2023-01-02T04:43:54.052Z,416.00
2023-01-02T04:45:15.097Z,416.00
2023-01-02T04:45:54.074Z,416.00
2023-01-02T04:46:54.160Z,416.00
2023-01-02T04:47:54.013Z,418.00
2023-01-02T04:49:15.162Z,418.00
2023-01-02T04:49:53.971Z,415.00
2023-01-02T04:50:54.028Z,414.00
2023-01-02T04:51:53.942Z,414.00
2023-01-02T04:52:54.061Z,415.00
2023-01-02T04:53:53.955Z,417.00
2023-01-02T04:54:54.010Z,419.00
2023-01-02T04:55:53.892Z,419.00
2023-01-02T04:58:03.327Z,478.00
2023-01-02T04:59:03.208Z,431.00
2023-01-02T05:00:03.247Z,424.00
2023-01-02T05:01:03.155Z,422.00
2023-01-02T05:02:03.393Z,419.00
2023-01-02T05:03:03.365Z,418.00
2023-01-02T05:04:03.237Z,422.00
2023-01-02T05:05:03.126Z,419.00
2023-01-02T05:06:03.147Z,419.00
2023-01-02T05:07:03.095Z,417.00
2023-01-02T05:08:04.208Z,416.00
2023-01-02T05:09:03.040Z,418.00
2023-01-02T05:10:03.134Z,418.00
2023-01-02T05:11:03.038Z,417.00
2023-01-02T05:12:04.200Z,416.00
2023-01-02T05:13:02.984Z,416.00
2023-01-02T05:14:07.700Z,418.00
2023-01-02T05:15:02.955Z,418.00
2023-01-02T05:16:03.059Z,418.00
2023-01-02T05:17:02.976Z,419.00
2023-01-02T05:18:03.073Z,419.00
2023-01-02T05:19:02.903Z,423.00
2023-01-02T05:20:05.101Z,422.00
2023-01-02T05:21:02.876Z,420.00
2023-01-02T05:22:03.043Z,417.00
2023-01-02T05:23:02.883Z,417.00
2023-01-02T05:24:02.865Z,416.00
2023-01-02T05:25:02.825Z,416.00
2023-01-02T05:26:02.899Z,417.00
2023-01-02T05:27:02.822Z,418.00
2023-01-02T05:28:02.881Z,419.00
2023-01-02T05:29:02.805Z,419.00
2023-01-02T05:30:02.885Z,419.00
2023-01-02T05:31:02.807Z,418.00
2023-01-02T05:32:03.946Z,420.00
2023-01-02T05:33:02.724Z,421.00
2023-01-02T05:34:02.737Z,421.00
2023-01-02T05:35:02.725Z,419.00
2023-01-02T05:36:02.777Z,419.00
2023-01-02T05:37:02.692Z,421.00
2023-01-02T05:38:02.867Z,420.00
2023-01-02T05:39:02.644Z,422.00
2023-01-02T05:40:02.770Z,420.00
2023-01-02T05:41:02.709Z,420.00
2023-01-02T05:42:02.786Z,421.00
2023-01-02T05:43:02.586Z,422.00
2023-01-02T05:44:02.722Z,421.00
2023-01-02T05:45:02.567Z,422.00
2023-01-02T05:46:02.671Z,424.00
2023-01-02T05:47:02.554Z,424.00
2023-01-02T05:48:02.699Z,422.00
2023-01-02T05:49:02.512Z,423.00
2023-01-02T05:50:02.626Z,423.00
2023-01-02T05:51:02.505Z,422.00
2023-01-02T05:52:02.555Z,422.00
2023-01-02T05:53:02.473Z,424.00
2023-01-02T05:54:02.609Z,424.00
2023-01-02T05:55:02.435Z,424.00
2023-01-02T05:56:02.544Z,425.00
2023-01-02T05:57:02.414Z,425.00
2023-01-02T05:58:03.515Z,425.00
2023-01-02T05:59:02.403Z,426.00
2023-01-02T06:00:02.504Z,425.00
2023-01-02T06:01:02.366Z,424.00
2023-01-02T06:02:02.599Z,424.00
2023-01-02T06:03:02.558Z,424.00
2023-01-02T06:04:03.437Z,423.00
2023-01-02T06:05:02.415Z,425.00
2023-01-02T06:06:02.402Z,423.00
2023-01-02T06:07:02.281Z,421.00
2023-01-02T06:08:02.442Z,421.00
2023-01-02T06:09:02.251Z,421.00
2023-01-02T06:10:02.271Z,419.00
2023-01-02T06:11:02.256Z,421.00
2023-01-02T06:12:02.321Z,422.00
2023-01-02T06:13:02.200Z,423.00
2023-01-02T06:14:02.353Z,423.00
2023-01-02T06:15:02.186Z,424.00
2023-01-02T06:16:23.278Z,423.00
2023-01-02T06:17:02.145Z,423.00
2023-01-02T06:18:02.372Z,425.00
2023-01-02T06:19:02.123Z,424.00
2023-01-02T06:20:02.168Z,422.00
2023-01-02T06:21:02.097Z,420.00
2023-01-02T06:22:07.367Z,421.00
2023-01-02T06:23:02.077Z,421.00
2023-01-02T06:24:02.186Z,421.00
2023-01-02T06:25:02.041Z,420.00
2023-01-02T06:26:02.160Z,421.00
2023-01-02T06:27:02.013Z,422.00
2023-01-02T06:28:02.255Z,423.00
2023-01-02T06:29:02.005Z,424.00
2023-01-02T06:30:02.087Z,425.00
2023-01-02T06:31:01.973Z,426.00
2023-01-02T06:32:02.142Z,428.00
2023-01-02T06:33:01.941Z,426.00
2023-01-02T06:34:04.038Z,424.00
2023-01-02T06:35:01.924Z,424.00
2023-01-02T06:36:02.038Z,422.00
2023-01-02T06:37:06.244Z,423.00
2023-01-02T06:38:02.870Z,423.00
2023-01-02T06:39:02.055Z,426.00
2023-01-02T06:40:01.884Z,425.00
2023-01-02T06:41:01.991Z,425.00
2023-01-02T06:42:01.812Z,426.00
2023-01-02T06:43:01.939Z,426.00
2023-01-02T06:44:01.789Z,426.00
2023-01-02T06:45:03.951Z,426.00
2023-01-02T06:46:01.897Z,426.00
2023-01-02T06:47:01.898Z,425.00
2023-01-02T06:48:01.738Z,426.00
2023-01-02T06:49:01.922Z,426.00
2023-01-02T06:50:01.752Z,421.00
2023-01-02T06:51:02.878Z,423.00
2023-01-02T06:52:01.708Z,423.00
2023-01-02T06:53:01.816Z,423.00
2023-01-02T06:54:01.667Z,423.00
2023-01-02T06:55:01.720Z,423.00
2023-01-02T06:56:01.644Z,424.00
2023-01-02T06:57:01.761Z,423.00
2023-01-02T06:58:08.623Z,423.00
2023-01-02T06:59:02.619Z,424.00
2023-01-02T07:00:01.657Z,425.00
2023-01-02T07:01:01.610Z,427.00
2023-01-02T07:02:02.773Z,425.00
2023-01-02T07:03:01.602Z,425.00
2023-01-02T07:04:01.699Z,423.00
2023-01-02T07:05:01.519Z,425.00
2023-01-02T07:06:01.567Z,425.00
2023-01-02T07:07:01.491Z,428.00
2023-01-02T07:08:24.571Z,429.00
2023-01-02T07:09:01.473Z,428.00
2023-01-02T07:10:01.589Z,428.00
2023-01-02T07:11:01.445Z,429.00
2023-01-02T07:12:01.576Z,425.00
2023-01-02T07:13:01.410Z,426.00
2023-01-02T07:14:01.607Z,425.00
2023-01-02T07:15:01.391Z,427.00
2023-01-02T07:16:01.582Z,425.00
2023-01-02T07:17:01.358Z,425.00
2023-01-02T07:18:01.482Z,425.00
2023-01-02T07:19:01.348Z,428.00
2023-01-02T07:20:02.501Z,428.00
2023-01-02T07:21:01.307Z,429.00
2023-01-02T07:22:01.521Z,429.00
2023-01-02T07:23:01.280Z,429.00
2023-01-02T07:24:01.486Z,430.00
2023-01-02T07:25:01.265Z,430.00
2023-01-02T07:26:22.329Z,429.00
2023-01-02T07:27:01.235Z,428.00
2023-01-02T07:28:01.307Z,429.00
2023-01-02T07:29:01.210Z,429.00
2023-01-02T07:30:01.293Z,428.00
2023-01-02T07:31:01.189Z,429.00
2023-01-02T07:32:01.368Z,431.00
2023-01-02T07:33:01.146Z,430.00
2023-01-02T07:34:02.260Z,430.00
2023-01-02T07:35:01.133Z,432.00
2023-01-02T07:36:01.213Z,431.00
2023-01-02T07:37:01.096Z,430.00
2023-01-02T07:38:02.255Z,431.00
2023-01-02T07:39:01.079Z,434.00
2023-01-02T07:40:01.215Z,434.00
2023-01-02T07:41:01.060Z,436.00
2023-01-02T07:42:01.197Z,434.00
2023-01-02T07:43:01.015Z,431.00
2023-01-02T07:44:02.054Z,431.00
2023-01-02T07:45:00.997Z,432.00
2023-01-02T07:46:01.139Z,431.00
2023-01-02T07:47:00.964Z,431.00
2023-01-02T07:48:01.104Z,430.00
2023-01-02T07:49:00.934Z,425.00
2023-01-02T07:50:22.038Z,429.00
2023-01-02T07:51:00.915Z,430.00
2023-01-02T07:52:01.032Z,431.00
2023-01-02T07:53:00.886Z,429.00
2023-01-02T07:54:01.025Z,430.00
2023-01-02T07:55:00.863Z,431.00
2023-01-02T07:56:01.002Z,430.00
2023-01-02T07:57:00.845Z,429.00
2023-01-02T07:58:01.034Z,430.00
2023-01-02T07:59:00.815Z,430.00
2023-01-02T08:00:00.917Z,430.00
2023-01-02T08:01:05.441Z,430.00
2023-01-02T08:02:01.889Z,430.00
2023-01-02T08:03:00.941Z,429.00
2023-01-02T08:04:00.801Z,428.00
2023-01-02T08:05:00.855Z,426.00
2023-01-02T08:06:00.733Z,426.00
2023-01-02T08:07:02.888Z,427.00
2023-01-02T08:08:00.694Z,427.00
2023-01-02T08:09:00.823Z,426.00
2023-01-02T08:10:00.877Z,427.00
2023-01-02T08:11:00.764Z,426.00
2023-01-02T08:12:00.649Z,426.00
2023-01-02T08:13:00.806Z,426.00
2023-01-02T08:14:00.628Z,424.00
2023-01-02T08:15:00.641Z,425.00
2023-01-02T08:16:00.611Z,426.00
2023-01-02T08:17:00.710Z,426.00
2023-01-02T08:18:00.575Z,424.00
2023-01-02T08:19:00.704Z,425.00
2023-01-02T08:20:07.189Z,423.00
2023-01-02T08:21:01.725Z,425.00
2023-01-02T08:22:00.604Z,426.00
2023-01-02T08:23:00.503Z,428.00
2023-01-02T08:24:00.648Z,427.00
2023-01-02T08:25:00.522Z,426.00
2023-01-02T08:26:02.677Z,428.00
2023-01-02T08:27:00.472Z,426.00
2023-01-02T08:28:00.636Z,427.00
2023-01-02T08:29:00.422Z,429.00
2023-01-02T08:30:00.455Z,430.00
2023-01-02T08:31:00.471Z,432.00
2023-01-02T08:32:00.478Z,430.00
2023-01-02T08:33:00.382Z,430.00
2023-01-02T08:34:00.522Z,430.00
2023-01-02T08:35:00.345Z,428.00
2023-01-02T08:36:00.448Z,425.00
2023-01-02T08:37:00.312Z,424.00
2023-01-02T08:38:00.373Z,427.00
2023-01-02T08:39:00.370Z,428.00
2023-01-02T08:40:00.440Z,427.00
2023-01-02T08:41:00.458Z,426.00
2023-01-02T08:42:00.339Z,425.00
2023-01-02T08:43:00.250Z,427.00
2023-01-02T08:44:00.325Z,428.00
2023-01-02T08:45:00.233Z,430.00
2023-01-02T08:46:00.358Z,431.00
2023-01-02T08:47:00.188Z,429.00
2023-01-02T08:48:00.261Z,430.00
2023-01-02T08:49:00.160Z,428.00
2023-01-02T08:50:00.297Z,426.00
2023-01-02T08:51:00.174Z,425.00
2023-01-02T08:52:00.237Z,426.00
2023-01-02T08:53:00.120Z,427.00
2023-01-02T08:54:00.282Z,425.00
2023-01-02T08:55:00.083Z,427.00
2023-01-02T08:56:01.229Z,425.00
2023-01-02T08:57:00.117Z,429.00
2023-01-02T08:58:00.138Z,428.00
2023-01-02T08:59:00.053Z,426.00
2023-01-02T09:00:00.179Z,425.00
2023-01-02T09:01:00.060Z,424.00
2023-01-02T09:02:00.208Z,425.00
2023-01-02T09:03:00.092Z,424.00
2023-01-02T09:04:01.828Z,424.00
2023-01-02T09:04:59.950Z,423.00
2023-01-02T09:05:59.966Z,424.00
2023-01-02T09:06:59.910Z,423.00
2023-01-02T09:08:00.016Z,425.00
2023-01-02T09:09:01.414Z,425.00
2023-01-02T09:09:59.878Z,424.00
2023-01-02T09:11:00.946Z,424.00
2023-01-02T09:11:59.856Z,423.00
2023-01-02T09:12:59.948Z,425.00
2023-01-02T09:13:59.826Z,425.00
2023-01-02T09:14:59.947Z,427.00
2023-01-02T09:15:59.925Z,427.00
2023-01-02T09:16:59.919Z,428.00
2023-01-02T09:17:59.778Z,430.00
2023-01-02T09:19:01.952Z,429.00
2023-01-02T09:19:59.748Z,428.00
2023-01-02T09:20:59.848Z,427.00
2023-01-02T09:21:59.727Z,426.00
2023-01-02T09:22:59.827Z,427.00
2023-01-02T09:23:59.707Z,426.00
2023-01-02T09:24:59.868Z,428.00
2023-01-02T09:25:59.670Z,429.00
2023-01-02T09:26:59.858Z,428.00
2023-01-02T09:27:59.648Z,429.00
2023-01-02T09:29:01.742Z,429.00
2023-01-02T09:29:59.619Z,431.00
2023-01-02T09:30:59.731Z,433.00
2023-01-02T09:31:59.591Z,430.00
2023-01-02T09:32:59.768Z,429.00
2023-01-02T09:33:59.567Z,429.00
2023-01-02T09:34:59.740Z,426.00
2023-01-02T09:35:59.547Z,428.00
2023-01-02T09:36:59.682Z,427.00
2023-01-02T09:37:59.506Z,427.00
2023-01-02T09:38:59.663Z,425.00
2023-01-02T09:39:59.509Z,425.00
2023-01-02T09:40:59.556Z,425.00
2023-01-02T09:41:59.474Z,423.00
2023-01-02T09:42:59.582Z,419.00
2023-01-02T09:43:59.426Z,418.00
2023-01-02T09:45:04.699Z,421.00
2023-01-02T09:46:00.422Z,421.00
2023-01-02T09:47:22.659Z,420.00
2023-01-02T09:47:59.385Z,419.00
2023-01-02T09:48:59.366Z,423.00
2023-01-02T09:49:59.451Z,424.00
2023-01-02T09:51:04.101Z,426.00
2023-01-02T09:52:00.357Z,423.00
2023-01-02T09:52:59.466Z,423.00
2023-01-02T09:53:59.304Z,422.00
2023-01-02T09:54:59.499Z,423.00
2023-01-02T09:55:59.281Z,426.00
2023-01-02T09:57:02.556Z,425.00
2023-01-02T09:57:59.267Z,423.00
2023-01-02T09:58:59.363Z,424.00
2023-01-02T09:59:59.225Z,424.00
2023-01-02T10:00:59.307Z,424.00
2023-01-02T10:01:59.294Z,423.00
2023-01-02T10:03:04.328Z,421.00
2023-01-02T10:04:00.308Z,422.00
2023-01-02T10:04:59.374Z,421.00
2023-01-02T10:05:59.149Z,423.00
2023-01-02T10:06:59.193Z,422.00
2023-01-02T10:07:59.125Z,422.00
2023-01-02T10:08:59.202Z,422.00
2023-01-02T10:09:59.090Z,422.00
2023-01-02T10:10:59.182Z,424.00
2023-01-02T10:11:59.074Z,425.00
2023-01-02T10:12:59.228Z,425.00
2023-01-02T10:15:00.052Z,427.00
2023-01-02T10:15:59.089Z,428.00
2023-01-02T10:16:59.081Z,429.00
2023-01-02T10:17:59.004Z,431.00
2023-01-02T10:18:59.144Z,428.00
2023-01-02T10:19:58.971Z,428.00
2023-01-02T10:20:59.113Z,427.00
2023-01-02T10:21:59.843Z,425.00
2023-01-02T10:22:58.976Z,429.00
2023-01-02T10:23:59.053Z,427.00
2023-01-02T10:24:59.832Z,425.00
2023-01-02T10:25:58.886Z,425.00
2023-01-02T10:27:04.289Z,423.00
2023-01-02T10:28:05.868Z,423.00
2023-01-02T10:28:58.889Z,425.00
2023-01-02T10:29:58.953Z,422.00
2023-01-02T10:31:02.728Z,424.00
2023-01-02T10:32:00.164Z,423.00
2023-01-02T10:32:58.882Z,423.00
2023-01-02T10:33:58.833Z,423.00
2023-01-02T10:34:58.876Z,425.00
2023-01-02T10:35:58.752Z,423.00
2023-01-02T10:37:01.808Z,423.00
2023-01-02T10:37:59.752Z,423.00
2023-01-02T10:38:59.891Z,423.00
2023-01-02T10:39:58.725Z,424.00
2023-01-02T10:40:58.728Z,423.00
2023-01-02T10:41:58.683Z,421.00
2023-01-02T10:43:00.028Z,424.00
2023-01-02T10:43:58.665Z,429.00
2023-01-02T10:45:19.736Z,428.00
2023-01-02T10:45:58.621Z,424.00
2023-01-02T10:46:58.796Z,426.00
2023-01-02T10:47:58.601Z,430.00
2023-01-02T10:48:58.741Z,429.00
2023-01-02T10:49:58.614Z,432.00
2023-01-02T10:50:59.715Z,431.00
2023-01-02T10:51:58.541Z,432.00
2023-01-02T10:52:58.613Z,429.00
2023-01-02T10:53:58.522Z,427.00
2023-01-02T10:55:00.359Z,428.00
2023-01-02T10:55:58.524Z,428.00
2023-01-02T10:57:20.630Z,427.00
2023-01-02T10:57:58.465Z,427.00
2023-01-02T10:58:58.635Z,426.00
2023-01-02T10:59:58.443Z,426.00
2023-01-02T11:00:58.582Z,427.00
2023-01-02T11:01:58.517Z,425.00
2023-01-02T11:02:58.525Z,423.00
2023-01-02T11:03:58.392Z,424.00
2023-01-02T11:04:59.458Z,426.00
2023-01-02T11:06:10.228Z,427.00
2023-01-02T11:06:59.394Z,425.00
2023-01-02T11:07:58.359Z,424.00
2023-01-02T11:08:58.504Z,424.00
2023-01-02T11:09:58.309Z,422.00
2023-01-02T11:10:58.333Z,422.00
2023-01-02T11:11:58.280Z,422.00
2023-01-02T11:13:00.340Z,425.00
2023-01-02T11:13:58.259Z,426.00
2023-01-02T11:14:58.425Z,425.00
2023-01-02T11:15:58.288Z,422.00
2023-01-02T11:16:58.340Z,425.00
2023-01-02T11:17:58.201Z,423.00
2023-01-02T11:19:00.281Z,424.00
2023-01-02T11:19:58.187Z,426.00
2023-01-02T11:20:58.209Z,429.00
2023-01-02T11:21:58.173Z,427.00
2023-01-02T11:22:58.241Z,425.00
2023-01-02T11:23:58.129Z,422.00
2023-01-02T11:25:00.670Z,416.00
2023-01-02T11:25:58.091Z,419.00
2023-01-02T11:26:58.210Z,420.00
2023-01-02T11:27:58.072Z,420.00
2023-01-02T11:28:58.259Z,419.00
2023-01-02T11:29:58.052Z,420.00
2023-01-02T11:30:58.135Z,422.00
2023-01-02T11:31:58.758Z,420.00
2023-01-02T11:32:58.119Z,421.00
2023-01-02T11:33:57.999Z,421.00
2023-01-02T11:34:58.156Z,424.00
2023-01-02T11:35:57.970Z,423.00
2023-01-02T11:36:59.171Z,423.00
2023-01-02T11:37:57.961Z,422.00
2023-01-02T11:38:58.027Z,420.00
2023-01-02T11:39:57.921Z,420.00
2023-01-02T11:40:57.966Z,419.00
2023-01-02T11:41:57.901Z,422.00
2023-01-02T11:42:58.052Z,421.00
2023-01-02T11:43:57.860Z,418.00
2023-01-02T11:44:58.033Z,417.00
2023-01-02T11:45:57.875Z,416.00
2023-01-02T11:46:57.958Z,415.00
2023-01-02T11:47:57.805Z,414.00
2023-01-02T11:48:57.948Z,414.00
2023-01-02T11:49:57.797Z,416.00
2023-01-02T11:51:18.922Z,416.00
2023-01-02T11:51:57.765Z,417.00
2023-01-02T11:52:57.885Z,415.00
2023-01-02T11:53:57.733Z,417.00
2023-01-02T11:54:57.868Z,417.00
2023-01-02T11:55:57.714Z,418.00
2023-01-02T11:56:57.751Z,418.00
2023-01-02T11:57:57.681Z,419.00
2023-01-02T11:58:57.778Z,417.00
2023-01-02T11:59:57.657Z,417.00
2023-01-02T12:00:58.786Z,417.00
2023-01-02T12:01:57.772Z,417.00
2023-01-02T12:02:57.804Z,418.00
2023-01-02T12:03:57.644Z,418.00
2023-01-02T12:04:57.791Z,418.00
2023-01-02T12:05:57.576Z,416.00
2023-01-02T12:06:57.668Z,415.00
2023-01-02T12:07:57.545Z,418.00
2023-01-02T12:08:57.667Z,420.00
2023-01-02T12:09:57.526Z,420.00
2023-01-02T12:10:57.587Z,419.00
2023-01-02T12:11:57.513Z,421.00
2023-01-02T12:12:59.627Z,422.00
2023-01-02T12:13:57.472Z,424.00
2023-01-02T12:14:58.693Z,424.00
2023-01-02T12:15:57.437Z,424.00
2023-01-02T12:16:57.501Z,422.00
2023-01-02T12:17:57.414Z,423.00
2023-01-02T12:18:58.501Z,422.00
2023-01-02T12:20:03.356Z,421.00
2023-01-02T12:20:58.382Z,419.00
2023-01-02T12:21:57.437Z,420.00
2023-01-02T12:22:57.363Z,419.00
2023-01-02T12:23:58.488Z,419.00
2023-01-02T12:24:57.344Z,419.00
2023-01-02T12:25:57.417Z,419.00
2023-01-02T12:26:57.301Z,419.00
2023-01-02T12:27:57.445Z,420.00
2023-01-02T12:28:57.264Z,420.00
2023-01-02T12:29:58.302Z,419.00
2023-01-02T12:30:57.261Z,418.00
2023-01-02T12:32:06.028Z,418.00